Time;durP1;ratioP1;P1;durP2;ratioP2;P2;SDS_P1;SDS_P2;PMS_P1;PMS_P2;Temp;Humidity;BMP_temperature;BMP_pressure;BME280_temperature;BME280_humidity;BME280_pressure;Samples;Min_cycle;Max_cycle;Signal;HPM_P1;HPM_P2
2022/01/07 00:00:22;;;;;;;12.82;5.32;;;-1.50;99.90;;;-2.66;100.00;97539.91;4985943;28;20644;-85
2022/01/07 00:02:53;;;;;;;11.32;5.15;;;-1.60;99.90;;;-2.68;100.00;97539.88;5002023;28;20210;-84
2022/01/07 00:05:20;;;;;;;12.98;5.35;;;-1.60;99.90;;;-2.56;100.00;97553.00;4988579;28;20037;-84
2022/01/07 00:07:46;;;;;;;14.20;5.68;;;-1.60;99.90;;;-2.69;100.00;97526.09;4980939;28;20049;-84
2022/01/07 00:10:16;;;;;;;10.85;5.10;;;-1.60;99.90;;;-2.69;100.00;97539.03;4986691;28;20025;-84
2022/01/07 00:12:44;;;;;;;12.13;4.60;;;-1.60;99.90;;;-2.69;100.00;97538.16;5007618;28;20422;-84
2022/01/07 00:15:11;;;;;;;14.50;4.88;;;-1.60;99.90;;;-2.60;100.00;97548.63;4988479;28;20022;-84
2022/01/07 00:17:36;;;;;;;11.23;4.97;;;-1.60;99.90;;;-2.68;100.00;97534.72;4990182;28;20298;-84
2022/01/07 00:20:11;;;;;;;10.57;5.53;;;-1.70;99.90;;;-2.85;100.00;97506.03;4983784;28;20037;-84
2022/01/07 00:22:38;;;;;;;11.35;4.97;;;-1.70;99.90;;;-2.73;100.00;97533.75;5007435;28;20021;-84
2022/01/07 00:25:05;;;;;;;13.15;5.20;;;-1.70;99.90;;;-2.76;100.00;97526.84;5007545;28;20115;-84
2022/01/07 00:27:31;;;;;;;12.23;4.75;;;-1.70;99.90;;;-2.88;100.00;97498.22;4976599;28;20109;-84
2022/01/07 00:29:57;;;;;;;12.25;4.60;;;-1.70;99.90;;;-2.80;100.00;97512.16;5013282;28;20029;-84
2022/01/07 00:32:22;;;;;;;13.23;4.93;;;-1.70;99.90;;;-2.88;100.00;97501.69;4990468;28;20045;-84
2022/01/07 00:34:48;;;;;;;12.77;4.68;;;-1.80;99.90;;;-2.92;100.00;97494.72;5005528;28;20022;-85
2022/01/07 00:37:14;;;;;;;9.38;5.00;;;-1.80;99.90;;;-2.87;100.00;97499.97;5006357;28;20527;-84
2022/01/07 00:39:40;;;;;;;8.60;4.38;;;-1.80;99.90;;;-2.87;100.00;97497.41;4989261;28;20033;-84
2022/01/07 00:42:06;;;;;;;8.75;5.20;;;-1.80;99.90;;;-2.98;100.00;97479.16;5004229;28;20038;-84
2022/01/07 00:44:32;;;;;;;10.90;4.25;;;-1.80;99.90;;;-2.90;100.00;97497.34;4986620;28;20057;-84
2022/01/07 00:46:57;;;;;;;9.95;4.63;;;-1.80;99.90;;;-2.95;100.00;97488.66;4987492;28;20444;-84
2022/01/07 00:49:23;;;;;;;9.88;4.45;;;-1.80;99.90;;;-2.93;100.00;97492.97;5004986;28;20042;-84
2022/01/07 00:51:50;;;;;;;9.60;4.90;;;-1.80;99.90;;;-2.82;100.00;97510.38;5006602;28;20080;-84
2022/01/07 00:54:17;;;;;;;9.38;4.25;;;-1.80;99.90;;;-2.90;100.00;97500.78;4985616;28;20018;-84
2022/01/07 00:56:44;;;;;;;8.65;4.50;;;-1.80;99.90;;;-2.88;100.00;97501.69;4990838;28;20393;-84
2022/01/07 00:59:10;;;;;;;12.50;4.95;;;-1.80;99.90;;;-2.96;100.00;97485.19;4974807;28;20105;-85
2022/01/07 01:01:36;;;;;;;12.10;4.97;;;-1.80;99.90;;;-2.83;100.00;97499.19;4988710;28;20121;-84
2022/01/07 01:04:03;;;;;;;9.25;4.63;;;-1.80;99.90;;;-2.91;100.00;97487.84;4988559;28;20061;-84
2022/01/07 01:06:29;;;;;;;6.82;4.13;;;-1.80;99.90;;;-2.98;100.00;97468.81;5002636;28;20291;-84
2022/01/07 01:08:55;;;;;;;7.55;4.45;;;-1.80;99.90;;;-3.04;100.00;97458.38;4993539;28;20562;-84
2022/01/07 01:11:21;;;;;;;7.13;4.22;;;-1.80;99.90;;;-3.00;100.00;97472.22;5003179;28;20506;-84
2022/01/07 01:13:46;;;;;;;15.23;4.97;;;-1.80;99.90;;;-3.02;100.00;97459.28;4964529;28;20431;-84
2022/01/07 01:16:12;;;;;;;11.93;4.88;;;-1.80;99.90;;;-2.80;100.00;97488.03;4990198;28;20057;-85
2022/01/07 01:18:38;;;;;;;8.85;5.15;;;-1.80;99.90;;;-2.83;100.00;97488.88;4978293;28;20154;-84
2022/01/07 01:21:04;;;;;;;11.60;5.45;;;-1.80;99.90;;;-2.92;100.00;97461.19;5004965;28;20095;-83
2022/01/07 01:23:29;;;;;;;10.40;5.57;;;-1.80;99.90;;;-2.93;100.00;97459.44;5009087;28;20096;-84
2022/01/07 01:25:55;;;;;;;14.13;5.30;;;-1.70;99.90;;;-2.90;100.00;97464.66;4999706;28;20852;-85
2022/01/07 01:28:21;;;;;;;8.77;4.63;;;-1.80;99.90;;;-2.92;100.00;97471.50;4990925;28;20033;-84
2022/01/07 01:30:46;;;;;;;10.45;5.00;;;-1.80;99.90;;;-3.01;100.00;97449.84;5002620;28;20025;-84
2022/01/07 01:33:12;;;;;;;9.73;4.97;;;-1.80;99.90;;;-3.01;100.00;97450.69;4989065;28;20034;-85
2022/01/07 01:35:39;;;;;;;11.07;5.03;;;-1.80;99.90;;;-2.84;100.00;97478.50;5002224;28;20067;-84
2022/01/07 01:38:05;;;;;;;9.80;5.28;;;-1.80;99.90;;;-3.07;100.00;97450.56;4989217;28;20068;-84
2022/01/07 01:40:31;;;;;;;6.88;4.47;;;-1.90;99.90;;;-2.99;100.00;97458.47;4989216;28;20504;-85
2022/01/07 01:42:57;;;;;;;8.80;4.45;;;-1.90;99.90;;;-2.97;100.00;97475.72;4990060;28;20042;-84
2022/01/07 01:45:24;;;;;;;12.80;5.07;;;-1.90;99.90;;;-2.97;100.00;97469.69;4987172;28;20030;-84
2022/01/07 01:47:51;;;;;;;9.90;4.75;;;-1.90;99.90;;;-2.99;100.00;97461.06;4989228;28;20026;-84
2022/01/07 01:50:18;;;;;;;12.27;5.28;;;-1.90;99.90;;;-3.07;100.00;97453.16;4985535;28;20041;-84
2022/01/07 01:52:50;;;;;;;11.25;4.93;;;-1.90;99.90;;;-2.95;100.00;97463.69;4972669;28;20120;-84
2022/01/07 01:55:18;;;;;;;11.60;5.25;;;-1.90;99.90;;;-3.02;100.00;97450.69;5000490;28;20496;-84
2022/01/07 01:57:45;;;;;;;13.57;5.25;;;-1.90;99.90;;;-3.00;100.00;97448.97;5003112;28;20593;-84
2022/01/07 02:00:12;;;;;;;7.68;5.22;;;-1.90;99.90;;;-2.98;100.00;97450.75;5004291;28;20030;-84
2022/01/07 02:02:39;;;;;;;11.23;4.97;;;-1.90;99.90;;;-3.04;100.00;97439.47;5002449;28;20051;-84
2022/01/07 02:05:05;;;;;;;10.52;5.28;;;-1.90;99.90;;;-3.00;100.00;97447.25;4990893;28;20148;-84
2022/01/07 02:07:35;;;;;;;10.70;5.45;;;-1.90;99.90;;;-2.95;100.00;97440.47;4984818;28;20540;-84
2022/01/07 02:10:07;;;;;;;11.02;5.25;;;-1.90;99.90;;;-3.11;100.00;97403.22;4999603;28;20575;-84
2022/01/07 02:12:32;;;;;;;11.55;4.95;;;-1.90;99.90;;;-3.02;100.00;97412.81;4987890;28;20042;-84
2022/01/07 02:14:58;;;;;;;13.20;5.28;;;-1.80;99.90;;;-2.97;100.00;97429.25;4988812;28;20026;-84
2022/01/07 02:17:26;;;;;;;14.50;5.70;;;-1.90;99.90;;;-2.90;100.00;97435.41;4974258;28;20069;-84
2022/01/07 02:19:55;;;;;;;16.30;5.88;;;-1.90;99.90;;;-2.92;100.00;97422.47;4992684;28;20026;-84
2022/01/07 02:22:23;;;;;;;10.65;5.53;;;-1.80;99.90;;;-2.81;100.00;97421.78;5003410;28;20517;-84
2022/01/07 02:24:50;;;;;;;8.40;4.97;;;-1.70;99.90;;;-2.81;100.00;97430.38;4992524;28;20034;-84
2022/01/07 02:27:17;;;;;;;12.15;5.78;;;-1.70;99.90;;;-2.75;100.00;97414.13;5008320;28;20034;-84
2022/01/07 02:29:46;;;;;;;10.82;4.85;;;-1.70;99.90;;;-2.70;100.00;97415.06;5000617;28;20399;-84
2022/01/07 02:32:12;;;;;;;10.98;5.57;;;-1.60;99.90;;;-2.65;100.00;97413.44;4989033;28;20519;-84
2022/01/07 02:34:38;;;;;;;12.38;4.80;;;-1.60;99.90;;;-2.61;100.00;97416.94;5007389;28;20089;-84
2022/01/07 02:37:04;;;;;;;11.75;5.80;;;-1.60;99.90;;;-2.65;100.00;97403.09;4983568;28;20033;-84
2022/01/07 02:39:30;;;;;;;8.60;5.00;;;-1.60;99.90;;;-2.56;100.00;97417.88;4991778;28;20034;-84
2022/01/07 02:41:56;;;;;;;10.85;5.25;;;-1.60;99.90;;;-2.75;100.00;97386.59;4990440;28;20022;-84
2022/01/07 02:44:22;;;;;;;11.80;5.50;;;-1.60;99.90;;;-2.50;100.00;97420.53;5004844;28;20033;-84
2022/01/07 02:46:48;;;;;;;16.63;5.57;;;-1.50;99.90;;;-2.58;100.00;97416.97;4976571;28;20026;-84
2022/01/07 02:49:17;;;;;;;12.32;5.20;;;-1.50;99.90;;;-2.62;100.00;97405.75;4987855;28;20026;-84
2022/01/07 02:51:46;;;;;;;11.35;5.53;;;-1.50;99.90;;;-2.54;100.00;97419.63;5000749;28;20078;-84
2022/01/07 02:54:12;;;;;;;11.43;6.03;;;-1.50;99.90;;;-2.62;100.00;97408.31;4982051;28;20038;-84
2022/01/07 02:56:39;;;;;;;11.73;5.85;;;-1.50;99.90;;;-2.57;100.00;97413.53;4978701;28;20080;-84
2022/01/07 02:59:06;;;;;;;10.05;5.80;;;-1.50;99.90;;;-2.55;100.00;97412.72;4989772;28;20026;-84
2022/01/07 03:01:33;;;;;;;11.52;5.93;;;-1.50;99.90;;;-2.64;100.00;97401.38;4987210;28;20027;-84
2022/01/07 03:03:59;;;;;;;13.23;6.03;;;-1.60;99.90;;;-2.66;100.00;97382.41;4997907;28;20496;-84
2022/01/07 03:06:25;;;;;;;11.73;6.13;;;-1.60;99.90;;;-2.74;100.00;97380.59;4987712;28;20079;-84
2022/01/07 03:08:52;;;;;;;10.18;5.80;;;-1.60;99.90;;;-2.80;100.00;97380.50;4973788;28;20033;-84
2022/01/07 03:11:20;;;;;;;11.73;5.97;;;-1.60;99.90;;;-2.61;100.00;97401.44;5002473;28;20572;-84
2022/01/07 03:13:46;;;;;;;10.77;5.68;;;-1.60;99.90;;;-2.65;100.00;97399.66;5004615;28;20088;-84
2022/01/07 03:16:12;;;;;;;8.90;5.60;;;-1.60;99.90;;;-2.74;100.00;97390.06;4995607;28;20077;-84
2022/01/07 03:18:38;;;;;;;9.45;5.13;;;-1.60;99.90;;;-2.77;100.00;97396.03;5004573;28;20031;-84
2022/01/07 03:21:04;;;;;;;10.75;5.50;;;-1.70;99.90;;;-2.72;100.00;97403.84;5004687;28;20029;-84
2022/01/07 03:23:30;;;;;;;10.68;5.80;;;-1.70;99.90;;;-2.90;100.00;97397.53;4974097;28;20511;-84
2022/01/07 03:25:57;;;;;;;9.40;5.63;;;-1.70;99.90;;;-2.77;100.00;97410.66;4993231;28;20037;-84
2022/01/07 03:28:23;;;;;;;10.23;5.53;;;-1.70;99.90;;;-2.80;100.00;97411.50;4988338;28;20034;-84
2022/01/07 03:30:50;;;;;;;9.63;4.88;;;-1.70;99.90;;;-2.76;100.00;97413.25;4995062;28;20448;-84
2022/01/07 03:33:16;;;;;;;13.45;5.22;;;-1.70;99.90;;;-2.72;100.00;97401.28;4994281;28;20032;-84
2022/01/07 03:35:42;;;;;;;10.30;4.90;;;-1.70;99.90;;;-2.72;100.00;97398.69;5005729;28;20334;-84
2022/01/07 03:38:08;;;;;;;11.30;4.95;;;-1.70;99.90;;;-2.70;100.00;97402.16;4975962;28;20056;-83
2022/01/07 03:40:35;;;;;;;7.65;4.07;;;-1.70;99.90;;;-2.70;100.00;97390.09;4990674;28;20403;-84
2022/01/07 03:43:01;;;;;;;8.27;4.10;;;-1.60;99.90;;;-2.69;100.00;97391.84;4990846;28;20044;-84
2022/01/07 03:45:28;;;;;;;11.02;4.35;;;-1.60;99.90;;;-2.79;100.00;97368.47;4990477;28;20083;-84
2022/01/07 03:47:54;;;;;;;11.20;4.45;;;-1.60;99.90;;;-2.65;100.00;97390.19;4969249;28;20115;-84
2022/01/07 03:50:23;;;;;;;10.57;4.35;;;-1.60;99.90;;;-2.70;100.00;97378.94;4984563;28;20030;-84
2022/01/07 03:52:49;;;;;;;8.05;4.20;;;-1.60;99.90;;;-2.59;100.00;97399.72;5007568;28;20117;-84
2022/01/07 03:55:21;;;;;;;9.20;4.15;;;-1.60;99.90;;;-2.64;100.00;97391.91;5005404;28;20475;-84
2022/01/07 03:57:47;;;;;;;8.45;3.70;;;-1.60;99.90;;;-2.64;100.00;97397.06;4986308;28;20026;-84
2022/01/07 04:00:22;;;;;;;10.23;4.97;;;-1.60;99.90;;;-2.63;100.00;97393.66;5005140;28;20032;-84
2022/01/07 04:02:49;;;;;;;8.27;4.32;;;-1.60;99.90;;;-2.57;100.00;97387.72;5005598;28;20352;-84
2022/01/07 04:05:19;;;;;;;10.88;4.50;;;-1.60;99.90;;;-2.68;100.00;97382.38;4989015;28;20109;-84
2022/01/07 04:07:44;;;;;;;8.65;4.13;;;-1.60;99.90;;;-2.69;100.00;97383.25;4987368;28;20030;-84
2022/01/07 04:10:10;;;;;;;9.88;4.53;;;-1.60;99.90;;;-2.97;100.00;97349.25;4985366;28;20415;-84
2022/01/07 04:12:36;;;;;;;11.55;4.95;;;-1.60;99.90;;;-2.77;100.00;97388.28;4984132;28;20716;-84
2022/01/07 04:15:12;;;;;;;11.68;4.85;;;-1.60;99.90;;;-2.73;100.00;97394.34;4975000;28;20079;-84
2022/01/07 04:17:41;;;;;;;8.27;4.20;;;-1.70;99.90;;;-2.76;100.00;97379.69;4988354;28;20026;-84
2022/01/07 04:20:09;;;;;;;9.90;4.15;;;-1.70;99.90;;;-2.81;100.00;97371.03;5002593;28;20112;-84
2022/01/07 04:22:35;;;;;;;9.20;4.10;;;-1.70;99.90;;;-2.72;100.00;97386.63;4984180;28;20037;-84
2022/01/07 04:25:09;;;;;;;7.38;3.55;;;-1.70;99.90;;;-2.48;100.00;97384.41;5004437;28;20104;-84
2022/01/07 04:27:35;;;;;;;9.07;4.30;;;-1.50;99.90;;;-2.47;100.00;97394.75;4982639;28;20037;-84
2022/01/07 04:30:01;;;;;;;9.00;4.72;;;-1.50;99.90;;;-2.52;100.00;97396.41;5005289;28;20034;-84
2022/01/07 04:32:27;;;;;;;8.63;4.05;;;-1.50;99.90;;;-2.57;100.00;97392.88;4984752;28;20022;-84
2022/01/07 04:34:53;;;;;;;9.30;4.53;;;-1.40;99.90;;;-2.67;100.00;97370.34;5004028;28;20550;-84
2022/01/07 04:37:19;;;;;;;8.70;4.32;;;-1.50;99.90;;;-2.54;100.00;97401.53;4986318;28;20514;-84
2022/01/07 04:39:45;;;;;;;8.90;4.55;;;-1.50;99.90;;;-2.56;100.00;97394.63;4999022;28;20074;-84
2022/01/07 04:42:11;;;;;;;8.55;4.35;;;-1.50;99.90;;;-2.59;100.00;97395.44;5001113;28;20107;-84
2022/01/07 04:44:40;;;;;;;7.35;3.85;;;-1.50;99.90;;;-2.62;100.00;97381.59;4986333;28;20826;-84
2022/01/07 04:47:07;;;;;;;11.70;4.85;;;-1.50;99.90;;;-2.59;100.00;97407.47;4968312;28;20076;-84
2022/01/07 04:49:34;;;;;;;10.55;4.97;;;-1.50;99.90;;;-2.67;100.00;97389.31;4999731;28;20387;-84
2022/01/07 04:52:00;;;;;;;8.18;4.65;;;-1.50;99.90;;;-2.49;100.00;97417.13;5012706;28;20054;-84
2022/01/07 04:54:26;;;;;;;10.52;4.88;;;-1.50;99.90;;;-2.71;100.00;97396.13;4974135;28;20034;-84
2022/01/07 04:56:51;;;;;;;9.23;5.13;;;-1.50;99.90;;;-2.56;100.00;97404.97;5005738;28;20033;-84
2022/01/07 04:59:17;;;;;;;9.13;5.45;;;-1.50;99.90;;;-2.79;100.00;97376.22;4970535;28;20029;-84
2022/01/07 05:01:43;;;;;;;7.50;4.80;;;-1.60;99.90;;;-2.61;100.00;97404.00;4980378;28;20255;-84
2022/01/07 05:04:09;;;;;;;13.13;5.25;;;-1.60;99.90;;;-2.71;100.00;97406.47;5003787;28;20041;-84
2022/01/07 05:09:03;;;;;;;10.20;5.43;;;-1.60;99.90;;;-2.73;100.00;97408.16;5002168;28;20042;-84
2022/01/07 05:11:29;;;;;;;10.63;4.97;;;-1.70;99.90;;;-2.96;100.00;97374.25;4984345;28;20037;-84
2022/01/07 05:13:55;;;;;;;8.98;4.85;;;-1.70;99.90;;;-2.83;100.00;97401.09;4991713;28;20059;-84
2022/01/07 05:16:20;;;;;;;12.38;5.05;;;-1.70;99.90;;;-2.76;100.00;97417.56;5000478;28;20033;-84
2022/01/07 05:18:46;;;;;;;11.50;5.78;;;-1.70;99.90;;;-2.76;100.00;97420.16;5003905;28;20033;-84
2022/01/07 05:21:12;;;;;;;9.00;5.18;;;-1.70;99.90;;;-2.75;100.00;97416.69;4989456;28;20060;-84
2022/01/07 05:23:37;;;;;;;10.52;5.72;;;-1.70;99.90;;;-2.78;100.00;97414.97;4970839;28;20037;-84
2022/01/07 05:26:06;;;;;;;10.70;5.68;;;-1.70;99.90;;;-2.82;100.00;97399.38;5006084;28;20030;-84
2022/01/07 05:28:32;;;;;;;10.20;5.28;;;-1.70;99.90;;;-2.72;100.00;97415.03;4986754;28;20134;-84
2022/01/07 05:30:58;;;;;;;9.65;5.65;;;-1.70;99.90;;;-2.73;100.00;97417.59;5004893;28;20380;-84
2022/01/07 05:33:24;;;;;;;11.70;5.30;;;-1.70;99.90;;;-2.78;100.00;97409.78;4968337;28;20328;-85
2022/01/07 05:35:50;;;;;;;9.07;5.47;;;-1.70;99.90;;;-2.89;100.00;97404.47;5000931;28;20034;-84
2022/01/07 05:38:15;;;;;;;10.27;5.50;;;-1.70;99.90;;;-2.72;100.00;97414.19;4999970;28;20313;-84
2022/01/07 05:40:41;;;;;;;10.05;5.45;;;-1.70;99.90;;;-2.66;100.00;97401.34;4987177;28;20029;-84
2022/01/07 05:43:07;;;;;;;10.88;5.88;;;-1.60;99.90;;;-2.77;100.00;97375.38;5001909;28;20124;-84
2022/01/07 05:45:32;;;;;;;12.90;6.05;;;-1.60;99.90;;;-2.79;100.00;97369.31;4970700;28;20398;-84
2022/01/07 05:47:58;;;;;;;10.32;5.55;;;-1.60;99.90;;;-2.62;100.00;97390.25;4994094;28;20087;-84
2022/01/07 05:50:24;;;;;;;12.70;6.18;;;-1.50;99.90;;;-2.60;100.00;97380.81;4993329;28;20507;-84
2022/01/07 05:52:50;;;;;;;12.15;6.15;;;-1.50;99.90;;;-2.59;100.00;97372.19;4992598;28;20407;-84
2022/01/07 05:55:16;;;;;;;11.93;6.40;;;-1.40;99.90;;;-2.46;100.00;97374.94;5005634;28;20026;-84
2022/01/07 05:57:41;;;;;;;13.68;6.43;;;-1.40;99.90;;;-2.49;100.00;97368.03;4990627;28;20445;-84
2022/01/07 06:00:09;;;;;;;11.88;6.18;;;-1.30;99.90;;;-2.43;100.00;97369.84;5009482;28;20030;-84
2022/01/07 06:02:35;;;;;;;14.43;5.75;;;-1.30;99.90;;;-2.49;100.00;97360.31;5007061;28;20045;-84
2022/01/07 06:05:00;;;;;;;10.38;5.78;;;-1.30;99.90;;;-2.45;100.00;97371.53;5007701;28;20033;-84
2022/01/07 06:07:26;;;;;;;10.82;6.50;;;-1.30;99.90;;;-2.43;100.00;97375.00;5007373;28;20120;-84
2022/01/07 06:09:52;;;;;;;14.20;6.93;;;-1.30;99.90;;;-2.44;100.00;97374.16;5005261;28;20030;-84
2022/01/07 06:12:18;;;;;;;11.45;5.80;;;-1.40;99.90;;;-2.37;100.00;97382.81;5009921;28;20068;-84
2022/01/07 06:14:43;;;;;;;12.20;6.53;;;-1.30;99.90;;;-2.42;100.00;97356.94;5003740;28;20026;-84
2022/01/07 06:17:11;;;;;;;13.23;6.32;;;-1.30;99.90;;;-2.49;100.00;97357.72;5008578;28;20029;-84
2022/01/07 06:19:37;;;;;;;10.60;6.25;;;-1.30;99.90;;;-2.43;100.00;97368.13;4972303;28;20085;-84
2022/01/07 06:22:03;;;;;;;10.82;6.28;;;-1.30;99.90;;;-2.47;100.00;97373.25;5002623;28;20191;-84
2022/01/07 06:24:29;;;;;;;10.88;5.82;;;-1.30;99.90;;;-2.36;100.00;97379.41;4993480;28;20053;-84
2022/01/07 06:26:55;;;;;;;12.55;6.72;;;-1.30;99.90;;;-2.41;100.00;97370.72;4992798;28;20529;-85
2022/01/07 06:29:21;;;;;;;13.50;6.40;;;-1.20;99.90;;;-2.22;100.00;97384.75;4994836;28;20045;-84
2022/01/07 06:31:47;;;;;;;12.00;6.75;;;-1.20;99.90;;;-2.20;100.00;97386.50;4993994;28;20547;-84
2022/01/07 06:34:13;;;;;;;11.45;6.80;;;-1.20;99.90;;;-2.29;100.00;97360.56;4989116;28;20145;-84
2022/01/07 06:36:39;;;;;;;14.27;7.18;;;-1.10;99.90;;;-2.21;100.00;97370.97;4991741;28;20034;-84
2022/01/07 06:39:05;;;;;;;11.77;6.68;;;-1.10;99.90;;;-2.20;100.00;97371.00;5009230;28;20093;-84
2022/01/07 06:41:31;;;;;;;11.50;6.50;;;-1.10;99.90;;;-2.20;100.00;97367.56;5004190;28;20037;-84
2022/01/07 06:43:57;;;;;;;12.40;6.47;;;-1.10;99.90;;;-2.22;100.00;97359.78;4994078;28;20125;-84
2022/01/07 06:46:23;;;;;;;14.45;7.25;;;-1.10;99.90;;;-2.26;100.00;97358.03;4988761;28;20476;-84
2022/01/07 06:48:48;;;;;;;13.75;7.13;;;-1.10;99.90;;;-2.14;100.00;97357.28;5009536;28;20117;-84
2022/01/07 06:51:14;;;;;;;14.68;7.63;;;-1.10;99.90;;;-2.13;100.00;97367.66;5004955;28;20033;-84
2022/01/07 06:53:40;;;;;;;14.30;7.47;;;-1.10;99.90;;;-2.26;100.00;97363.19;4992314;28;20520;-84
2022/01/07 06:56:06;;;;;;;11.88;6.82;;;-1.10;99.90;;;-2.27;100.00;97376.09;4990451;28;20411;-85
2022/01/07 06:58:32;;;;;;;14.68;7.30;;;-1.10;99.90;;;-2.28;100.00;97370.03;4992030;28;20571;-84
2022/01/07 07:00:57;;;;;;;12.27;6.88;;;-1.20;99.90;;;-2.15;100.00;97368.50;5006364;28;20113;-84
2022/01/07 07:03:23;;;;;;;12.07;7.40;;;-1.20;99.90;;;-2.19;100.00;97365.00;4971925;28;20112;-84
2022/01/07 07:05:49;;;;;;;15.38;8.43;;;-1.20;99.90;;;-2.25;100.00;97367.50;4990593;28;20064;-84
2022/01/07 07:08:15;;;;;;;14.48;7.47;;;-1.10;99.90;;;-2.40;100.00;97332.00;5009983;28;20198;-84
2022/01/07 07:10:41;;;;;;;14.32;7.35;;;-1.10;99.90;;;-2.15;100.00;97365.91;4989979;28;20044;-84
2022/01/07 07:13:06;;;;;;;13.95;7.05;;;-1.10;99.90;;;-2.20;100.00;97347.75;4975070;28;20117;-84
2022/01/07 07:18:06;;;;;;;13.95;7.85;;;-1.10;99.90;;;-2.04;100.00;97353.97;5021138;28;20045;-42
2022/01/07 07:20:32;;;;;;;14.90;7.15;;;-1.00;99.90;;;-2.01;100.00;97350.56;5024663;28;20540;-47
2022/01/07 07:22:57;;;;;;;19.08;8.82;;;-1.00;99.90;;;-2.01;100.00;97335.94;5027135;28;20059;-49
2022/01/07 07:25:23;;;;;;;16.00;7.72;;;-1.00;99.90;;;-1.98;100.00;97348.00;5023785;28;20172;-47
2022/01/07 07:27:50;;;;;;;14.25;7.13;;;-0.90;99.90;;;-1.97;100.00;97348.03;5025186;28;20354;-40
2022/01/07 07:30:16;;;;;;;15.25;7.32;;;-0.90;99.90;;;-1.89;100.00;97347.25;5021603;28;20349;-48
2022/01/07 07:32:42;;;;;;;12.20;7.10;;;-0.90;99.90;;;-1.89;100.00;97348.13;5023352;28;20049;-42
2022/01/07 07:37:50;;;;;;;12.93;7.68;;;-0.80;99.90;;;-1.81;100.00;97350.78;5025071;28;20034;-47
2022/01/07 07:40:17;;;;;;;14.73;7.25;;;-0.80;99.90;;;-1.73;100.00;97343.97;5025398;28;20475;-40
2022/01/07 07:42:43;;;;;;;10.73;6.38;;;-0.80;99.90;;;-1.71;100.00;97344.00;5004884;28;20021;-45
2022/01/07 07:45:09;;;;;;;12.85;7.35;;;-0.70;99.90;;;-1.68;100.00;97342.31;5025613;28;20041;-47
2022/01/07 07:47:35;;;;;;;18.08;7.88;;;-0.70;99.90;;;-1.69;100.00;97339.72;5026582;28;20451;-47
2022/01/07 07:50:03;;;;;;;13.32;7.50;;;-0.60;99.90;;;-1.62;100.00;97346.69;5021939;28;20124;-46
2022/01/07 07:52:29;;;;;;;15.00;7.75;;;-0.60;99.90;;;-1.63;100.00;97334.63;5022546;28;20033;-47
2022/01/07 07:54:55;;;;;;;11.07;6.72;;;-0.60;99.90;;;-1.54;100.00;97345.03;5026523;28;20044;-46
2022/01/07 07:57:20;;;;;;;18.77;7.65;;;-0.50;99.90;;;-1.52;100.00;97333.00;5022558;28;20518;-45
2022/01/07 07:59:46;;;;;;;13.70;7.25;;;-0.50;99.90;;;-1.45;100.00;97331.34;5019957;28;20108;-47
2022/01/07 08:02:13;;;;;;;14.15;7.47;;;-0.40;99.90;;;-1.45;100.00;97337.38;5024547;28;20124;-48
2022/01/07 08:04:39;;;;;;;13.90;7.20;;;-0.40;99.90;;;-1.32;100.00;97316.78;5022050;28;20054;-43
2022/01/07 08:07:05;;;;;;;13.20;7.72;;;-0.30;99.90;;;-1.25;100.00;97323.75;5009711;28;20037;-40
2022/01/07 08:09:36;;;;;;;12.27;7.15;;;-0.20;99.90;;;-1.13;100.00;97331.63;5024172;28;20202;-41
2022/01/07 08:12:16;;;;;;;11.40;6.85;;;-0.20;99.90;;;-1.10;100.00;97328.19;5025906;28;20041;-42
2022/01/07 08:17:25;;;;;;;13.50;6.90;;;0.00;99.90;;;-1.03;100.00;97320.47;5022654;28;20036;-39
2022/01/07 08:19:51;;;;;;;12.32;6.88;;;0.00;99.90;;;-1.01;100.00;97310.97;5022688;28;20042;-41
2022/01/07 08:22:17;;;;;;;10.63;6.90;;;0.00;99.90;;;-0.96;100.00;97311.03;5020238;28;20064;-42
2022/01/07 08:24:43;;;;;;;11.85;6.43;;;0.10;99.90;;;-0.90;100.00;97313.66;5007145;28;20108;-42
2022/01/07 08:27:09;;;;;;;11.50;6.88;;;0.10;99.90;;;-0.80;100.00;97310.28;5024518;28;20116;-42
2022/01/07 08:29:37;;;;;;;12.57;7.00;;;0.20;99.90;;;-0.81;100.00;97302.50;5010641;28;20430;-44
2022/01/07 08:34:56;;;;;;;10.50;6.88;;;0.20;99.90;;;-0.74;100.00;97296.50;5028325;28;20064;-40
2022/01/07 08:37:25;;;;;;;13.00;7.05;;;0.30;99.90;;;-0.71;100.00;97298.25;5022927;28;20036;-39
2022/01/07 08:39:53;;;;;;;11.63;6.15;;;0.30;99.90;;;-0.66;100.00;97299.16;5020292;28;20109;-39
2022/01/07 08:42:20;;;;;;;11.95;6.47;;;0.40;99.90;;;-0.72;100.00;97289.59;5019921;28;20030;-41
2022/01/07 08:44:46;;;;;;;10.82;6.57;;;0.30;99.90;;;-0.68;100.00;97296.53;5022642;28;20760;-40
2022/01/07 08:47:12;;;;;;;16.20;7.05;;;0.40;99.90;;;-0.67;100.00;97300.84;5026103;28;20037;-39
2022/01/07 08:49:38;;;;;;;13.52;6.88;;;0.40;99.90;;;-0.66;100.00;97297.41;5022444;28;20585;-41
2022/01/07 08:52:04;;;;;;;12.38;6.72;;;0.40;99.90;;;-0.60;100.00;97307.78;5020880;28;20486;-40
2022/01/07 08:54:30;;;;;;;12.88;7.25;;;0.40;99.90;;;-0.53;100.00;97311.28;5024637;28;20112;-41
2022/01/07 08:56:56;;;;;;;13.70;6.75;;;0.50;99.90;;;-0.48;100.00;97313.94;5019307;28;20132;-40
2022/01/07 08:59:21;;;;;;;11.52;6.45;;;0.50;99.90;;;-0.45;100.00;97309.63;5025282;28;20083;-40
2022/01/07 09:01:47;;;;;;;9.93;6.20;;;0.50;99.90;;;-0.50;100.00;97289.69;5025847;28;20025;-39
2022/01/07 09:04:13;;;;;;;10.98;6.38;;;0.60;99.90;;;-0.43;100.00;97299.25;5023752;28;20033;-40
2022/01/07 09:06:38;;;;;;;11.95;6.72;;;0.70;99.90;;;-0.29;100.00;97301.91;5019823;28;20038;-38
2022/01/07 09:09:04;;;;;;;11.65;6.38;;;0.70;99.90;;;-0.13;100.00;97308.03;5022313;28;20112;-41
2022/01/07 09:11:30;;;;;;;12.55;6.68;;;0.80;99.90;;;-0.14;100.00;97309.75;5017809;28;20080;-41
2022/01/07 09:13:58;;;;;;;16.75;6.57;;;0.90;99.90;;;-0.01;100.00;97310.66;5019959;28;20296;-40
2022/01/07 09:16:25;;;;;;;11.75;6.30;;;1.00;99.90;;;0.10;100.00;97310.69;5022238;28;20042;-42
2022/01/07 09:18:51;;;;;;;11.00;6.25;;;1.10;99.90;;;0.17;100.00;97302.94;5019885;28;20489;-41
2022/01/07 09:21:18;;;;;;;11.15;5.85;;;1.10;99.90;;;0.31;100.00;97300.38;5007672;28;20100;-38
2022/01/07 09:23:44;;;;;;;11.13;6.78;;;1.20;99.90;;;0.15;100.00;97260.56;5022491;28;20056;-39
2022/01/07 09:26:11;;;;;;;10.43;6.03;;;1.30;99.90;;;0.48;100.00;97292.59;5018461;28;20116;-43
2022/01/07 09:28:37;;;;;;;9.27;6.00;;;1.40;99.90;;;0.47;100.00;97280.50;5019763;28;20279;-42
2022/01/07 09:31:03;;;;;;;9.43;5.32;;;1.50;99.90;;;0.62;100.00;97305.59;5024207;28;20029;-40
2022/01/07 09:33:29;;;;;;;12.25;5.90;;;1.50;99.90;;;0.65;100.00;97296.97;5020924;28;20037;-40
2022/01/07 09:35:55;;;;;;;12.98;6.15;;;1.60;99.90;;;0.59;99.43;97294.34;5024126;28;20494;-38
2022/01/07 09:38:21;;;;;;;12.38;6.30;;;1.60;99.90;;;0.62;100.00;97290.03;5022278;28;20038;-42
2022/01/07 09:40:50;;;;;;;9.13;5.53;;;1.60;99.90;;;0.66;100.00;97283.97;5020036;28;20025;-43
2022/01/07 09:43:16;;;;;;;9.15;5.70;;;1.60;99.90;;;0.79;99.95;97295.25;5019531;28;20032;-39
2022/01/07 09:45:42;;;;;;;11.57;6.13;;;1.70;99.90;;;0.82;97.24;97292.63;5005007;28;20052;-42
2022/01/07 09:48:08;;;;;;;10.93;5.45;;;1.80;99.90;;;0.86;98.75;97293.50;5021367;28;20099;-40
2022/01/07 09:50:36;;;;;;;10.23;5.75;;;1.80;99.90;;;0.90;97.26;97271.88;5017934;28;20030;-41
2022/01/07 09:53:06;;;;;;;9.60;5.38;;;1.80;99.90;;;0.94;96.91;97271.00;5022616;28;20064;-40
2022/01/07 09:55:32;;;;;;;9.40;5.60;;;1.80;99.90;;;0.79;95.85;97266.69;5025823;28;20091;-41
2022/01/07 09:57:59;;;;;;;9.05;5.60;;;1.80;99.90;;;0.81;96.39;97264.06;5024514;28;20033;-41
2022/01/07 10:00:31;;;;;;;9.18;5.45;;;1.80;99.90;;;0.84;96.65;97269.25;5007005;28;20479;-40
2022/01/07 10:03:23;;;;;;;9.75;5.18;;;1.70;99.90;;;0.84;96.26;97272.72;5019796;28;20030;-41
2022/01/07 10:05:50;;;;;;;11.23;5.30;;;1.80;99.90;;;0.85;96.62;97258.03;5017841;28;20033;-40
2022/01/07 10:08:28;;;;;;;7.60;4.88;;;1.80;99.90;;;0.91;97.17;97264.06;5025693;28;20334;-41
2022/01/07 10:11:18;;;;;;;9.68;5.63;;;1.80;99.90;;;0.92;97.12;97257.16;5024421;28;20095;-40
2022/01/07 10:13:46;;;;;;;8.10;5.25;;;1.80;99.90;;;0.99;96.84;97255.38;5027839;28;20029;-40
2022/01/07 10:16:20;;;;;;;8.15;4.90;;;1.90;99.90;;;0.92;97.75;97252.81;5015868;28;20112;-40
2022/01/07 10:18:47;;;;;;;9.10;5.20;;;1.80;99.90;;;0.89;99.24;97252.81;5021132;28;20036;-43
2022/01/07 10:21:16;;;;;;;9.48;5.57;;;1.80;99.90;;;0.88;100.00;97253.69;5003240;28;20103;-41